sensor_id;sensor_type;location;lat;lon;timestamp;pressure;altitude;pressure_sealevel;temperature;humidity
50710;BME280;37033;49.994;21.992;2022-10-04T00:00:27;99146.82;;;9.24;87.35
50710;BME280;37033;49.994;21.992;2022-10-04T00:03:33;99146.67;;;9.25;87.31
50710;BME280;37033;49.994;21.992;2022-10-04T00:06:24;99153.10;;;9.26;87.33
50710;BME280;37033;49.994;21.992;2022-10-04T00:09:15;99153.38;;;9.27;87.42
50710;BME280;37033;49.994;21.992;2022-10-04T00:12:13;99149.95;;;9.26;87.42
50710;BME280;37033;49.994;21.992;2022-10-04T00:15:19;99146.83;;;9.27;87.44
50710;BME280;37033;49.994;21.992;2022-10-04T00:18:21;99145.32;;;9.27;87.36
50710;BME280;37033;49.994;21.992;2022-10-04T00:21:14;99143.95;;;9.27;87.41
50710;BME280;37033;49.994;21.992;2022-10-04T00:24:24;99137.55;;;9.26;87.43
50710;BME280;37033;49.994;21.992;2022-10-04T00:27:20;99137.05;;;9.26;87.45
50710;BME280;37033;49.994;21.992;2022-10-04T00:30:19;99137.77;;;9.25;87.48
50710;BME280;37033;49.994;21.992;2022-10-04T00:33:08;99136.19;;;9.24;87.63
50710;BME280;37033;49.994;21.992;2022-10-04T00:35:56;99134.57;;;9.25;87.66
50710;BME280;37033;49.994;21.992;2022-10-04T00:38:43;99133.71;;;9.25;87.69
50710;BME280;37033;49.994;21.992;2022-10-04T00:42:02;99131.51;;;9.26;87.74
50710;BME280;37033;49.994;21.992;2022-10-04T00:44:53;99123.41;;;9.25;87.81
50710;BME280;37033;49.994;21.992;2022-10-04T00:47:59;99120.87;;;9.25;87.94
50710;BME280;37033;49.994;21.992;2022-10-04T00:50:53;99122.97;;;9.25;88.11
50710;BME280;37033;49.994;21.992;2022-10-04T00:53:56;99117.90;;;9.24;88.12
50710;BME280;37033;49.994;21.992;2022-10-04T00:56:47;99119.75;;;9.23;88.27
50710;BME280;37033;49.994;21.992;2022-10-04T00:59:39;99119.52;;;9.24;88.53
50710;BME280;37033;49.994;21.992;2022-10-04T01:02:34;99123.05;;;9.23;88.55
50710;BME280;37033;49.994;21.992;2022-10-04T01:05:27;99122.05;;;9.22;88.53
50710;BME280;37033;49.994;21.992;2022-10-04T01:08:23;99125.95;;;9.22;88.58
50710;BME280;37033;49.994;21.992;2022-10-04T01:11:15;99132.95;;;9.22;88.70
50710;BME280;37033;49.994;21.992;2022-10-04T01:14:09;99134.51;;;9.24;88.87
50710;BME280;37033;49.994;21.992;2022-10-04T01:17:02;99129.67;;;9.21;89.26
50710;BME280;37033;49.994;21.992;2022-10-04T01:19:52;99131.77;;;9.18;89.30
50710;BME280;37033;49.994;21.992;2022-10-04T01:22:42;99124.27;;;9.14;89.31
50710;BME280;37033;49.994;21.992;2022-10-04T01:25:46;99121.21;;;9.11;89.38
50710;BME280;37033;49.994;21.992;2022-10-04T01:28:34;99123.95;;;9.08;89.67
50710;BME280;37033;49.994;21.992;2022-10-04T01:31:22;99124.39;;;9.07;89.91
50710;BME280;37033;49.994;21.992;2022-10-04T01:34:14;99120.86;;;9.05;89.95
50710;BME280;37033;49.994;21.992;2022-10-04T01:37:02;99120.20;;;9.02;89.97
50710;BME280;37033;49.994;21.992;2022-10-04T01:39:49;99124.94;;;8.98;90.01
50710;BME280;37033;49.994;21.992;2022-10-04T01:42:40;99124.30;;;8.95;90.06
50710;BME280;37033;49.994;21.992;2022-10-04T01:45:34;99123.20;;;8.92;90.17
50710;BME280;37033;49.994;21.992;2022-10-04T01:48:28;99122.02;;;8.89;90.31
50710;BME280;37033;49.994;21.992;2022-10-04T01:51:20;99119.08;;;8.88;90.54
50710;BME280;37033;49.994;21.992;2022-10-04T01:54:13;99115.52;;;8.86;90.59
50710;BME280;37033;49.994;21.992;2022-10-04T01:57:11;99117.54;;;8.85;90.52
50710;BME280;37033;49.994;21.992;2022-10-04T02:00:03;99118.08;;;8.84;90.70
50710;BME280;37033;49.994;21.992;2022-10-04T02:02:55;99115.44;;;8.82;90.71
50710;BME280;37033;49.994;21.992;2022-10-04T02:05:50;99112.49;;;8.82;90.69
50710;BME280;37033;49.994;21.992;2022-10-04T02:08:48;99109.92;;;8.81;90.78
50710;BME280;37033;49.994;21.992;2022-10-04T02:11:37;99111.17;;;8.81;90.89
50710;BME280;37033;49.994;21.992;2022-10-04T02:14:30;99119.20;;;8.81;91.06
50710;BME280;37033;49.994;21.992;2022-10-04T02:17:20;99124.10;;;8.81;91.17
50710;BME280;37033;49.994;21.992;2022-10-04T02:20:14;99125.80;;;8.83;91.25
50710;BME280;37033;49.994;21.992;2022-10-04T02:23:02;99129.19;;;8.84;91.11
50710;BME280;37033;49.994;21.992;2022-10-04T02:25:50;99130.95;;;8.87;91.21
50710;BME280;37033;49.994;21.992;2022-10-04T02:28:38;99128.75;;;8.88;91.26
50710;BME280;37033;49.994;21.992;2022-10-04T02:31:27;99130.14;;;8.90;91.20
50710;BME280;37033;49.994;21.992;2022-10-04T02:34:34;99126.60;;;8.92;91.20
50710;BME280;37033;49.994;21.992;2022-10-04T02:37:24;99125.36;;;8.95;91.20
50710;BME280;37033;49.994;21.992;2022-10-04T02:40:15;99125.98;;;8.96;91.13
50710;BME280;37033;49.994;21.992;2022-10-04T02:43:09;99123.42;;;8.98;90.96
50710;BME280;37033;49.994;21.992;2022-10-04T02:46:03;99123.45;;;9.00;90.89
50710;BME280;37033;49.994;21.992;2022-10-04T02:48:56;99122.79;;;9.00;90.82
50710;BME280;37033;49.994;21.992;2022-10-04T02:51:52;99123.13;;;9.02;90.79
50710;BME280;37033;49.994;21.992;2022-10-04T02:54:45;99126.53;;;9.03;90.84
50710;BME280;37033;49.994;21.992;2022-10-04T02:57:36;99123.21;;;9.04;90.74
50710;BME280;37033;49.994;21.992;2022-10-04T03:00:28;99122.14;;;9.04;90.76
50710;BME280;37033;49.994;21.992;2022-10-04T03:03:22;99124.64;;;9.04;90.67
50710;BME280;37033;49.994;21.992;2022-10-04T03:06:14;99121.31;;;9.03;90.65
50710;BME280;37033;49.994;21.992;2022-10-04T03:09:05;99122.40;;;9.03;90.56
50710;BME280;37033;49.994;21.992;2022-10-04T03:11:53;99118.24;;;9.02;90.70
50710;BME280;37033;49.994;21.992;2022-10-04T03:14:42;99121.21;;;9.01;90.64
50710;BME280;37033;49.994;21.992;2022-10-04T03:17:30;99119.86;;;8.98;90.61
50710;BME280;37033;49.994;21.992;2022-10-04T03:20:18;99126.20;;;8.96;90.82
50710;BME280;37033;49.994;21.992;2022-10-04T03:23:08;99124.60;;;8.95;90.85
50710;BME280;37033;49.994;21.992;2022-10-04T03:26:02;99122.59;;;8.95;91.08
50710;BME280;37033;49.994;21.992;2022-10-04T03:28:51;99121.45;;;8.94;91.09
50710;BME280;37033;49.994;21.992;2022-10-04T03:31:41;99124.98;;;8.95;91.10
50710;BME280;37033;49.994;21.992;2022-10-04T03:34:34;99131.06;;;8.95;91.19
50710;BME280;37033;49.994;21.992;2022-10-04T03:37:25;99138.30;;;8.97;91.23
50710;BME280;37033;49.994;21.992;2022-10-04T03:40:15;99139.80;;;8.98;91.34
50710;BME280;37033;49.994;21.992;2022-10-04T03:43:04;99141.73;;;9.00;91.28
50710;BME280;37033;49.994;21.992;2022-10-04T03:45:53;99143.59;;;9.00;91.25
50710;BME280;37033;49.994;21.992;2022-10-04T03:48:45;99148.21;;;9.01;91.16
50710;BME280;37033;49.994;21.992;2022-10-04T03:51:38;99151.36;;;9.02;90.90
50710;BME280;37033;49.994;21.992;2022-10-04T03:54:34;99147.90;;;9.02;90.85
50710;BME280;37033;49.994;21.992;2022-10-04T03:57:22;99143.95;;;9.01;90.74
50710;BME280;37033;49.994;21.992;2022-10-04T04:00:14;99138.31;;;9.02;90.65
50710;BME280;37033;49.994;21.992;2022-10-04T04:03:07;99137.98;;;9.02;90.59
50710;BME280;37033;49.994;21.992;2022-10-04T04:06:03;99139.87;;;9.01;90.57
50710;BME280;37033;49.994;21.992;2022-10-04T04:08:53;99143.00;;;9.01;90.56
50710;BME280;37033;49.994;21.992;2022-10-04T04:11:43;99137.65;;;9.01;90.54
50710;BME280;37033;49.994;21.992;2022-10-04T04:14:33;99147.31;;;9.02;90.66
50710;BME280;37033;49.994;21.992;2022-10-04T04:17:35;99148.70;;;9.04;90.67
50710;BME280;37033;49.994;21.992;2022-10-04T04:20:27;99149.11;;;9.05;90.70
50710;BME280;37033;49.994;21.992;2022-10-04T04:23:22;99143.39;;;9.06;90.67
50710;BME280;37033;49.994;21.992;2022-10-04T04:26:18;99147.92;;;9.07;90.72
50710;BME280;37033;49.994;21.992;2022-10-04T04:29:15;99152.36;;;9.09;90.71
50710;BME280;37033;49.994;21.992;2022-10-04T04:32:10;99154.45;;;9.11;90.77
50710;BME280;37033;49.994;21.992;2022-10-04T04:35:02;99158.44;;;9.12;90.76
50710;BME280;37033;49.994;21.992;2022-10-04T04:38:13;99162.37;;;9.13;90.80
50710;BME280;37033;49.994;21.992;2022-10-04T04:41:09;99161.20;;;9.14;90.58
50710;BME280;37033;49.994;21.992;2022-10-04T04:44:00;99168.27;;;9.15;90.41
50710;BME280;37033;49.994;21.992;2022-10-04T04:46:48;99165.28;;;9.16;90.30
50710;BME280;37033;49.994;21.992;2022-10-04T04:49:37;99166.97;;;9.15;90.29
50710;BME280;37033;49.994;21.992;2022-10-04T04:52:27;99166.45;;;9.14;90.35
50710;BME280;37033;49.994;21.992;2022-10-04T04:55:18;99174.13;;;9.13;90.39
50710;BME280;37033;49.994;21.992;2022-10-04T04:58:06;99177.47;;;9.12;90.52
50710;BME280;37033;49.994;21.992;2022-10-04T05:00:57;99177.94;;;9.11;90.60
50710;BME280;37033;49.994;21.992;2022-10-04T05:04:00;99179.29;;;9.11;90.72
50710;BME280;37033;49.994;21.992;2022-10-04T05:06:58;99185.92;;;9.11;90.78
50710;BME280;37033;49.994;21.992;2022-10-04T05:09:47;99190.53;;;9.11;90.89
50710;BME280;37033;49.994;21.992;2022-10-04T05:12:35;99198.43;;;9.13;90.88
50710;BME280;37033;49.994;21.992;2022-10-04T05:15:22;99196.40;;;9.14;90.83
50710;BME280;37033;49.994;21.992;2022-10-04T05:18:25;99197.76;;;9.17;90.75
50710;BME280;37033;49.994;21.992;2022-10-04T05:21:18;99203.81;;;9.19;90.61
50710;BME280;37033;49.994;21.992;2022-10-04T05:24:10;99205.64;;;9.20;90.50
50710;BME280;37033;49.994;21.992;2022-10-04T05:27:02;99206.61;;;9.19;90.43
50710;BME280;37033;49.994;21.992;2022-10-04T05:29:57;99214.02;;;9.19;90.32
50710;BME280;37033;49.994;21.992;2022-10-04T05:32:56;99216.29;;;9.20;90.27
50710;BME280;37033;49.994;21.992;2022-10-04T05:35:57;99216.99;;;9.21;90.19
50710;BME280;37033;49.994;21.992;2022-10-04T05:38:52;99221.34;;;9.21;90.19
50710;BME280;37033;49.994;21.992;2022-10-04T05:41:50;99226.08;;;9.22;90.12
50710;BME280;37033;49.994;21.992;2022-10-04T05:44:48;99229.08;;;9.23;90.05
50710;BME280;37033;49.994;21.992;2022-10-04T05:47:39;99231.60;;;9.24;90.05
50710;BME280;37033;49.994;21.992;2022-10-04T05:50:30;99236.43;;;9.24;90.00
50710;BME280;37033;49.994;21.992;2022-10-04T05:53:24;99243.48;;;9.24;89.92
50710;BME280;37033;49.994;21.992;2022-10-04T05:56:23;99243.58;;;9.26;89.85
50710;BME280;37033;49.994;21.992;2022-10-04T05:59:25;99243.60;;;9.27;89.81
50710;BME280;37033;49.994;21.992;2022-10-04T06:02:26;99248.38;;;9.29;89.79
50710;BME280;37033;49.994;21.992;2022-10-04T06:05:22;99247.95;;;9.32;89.68
50710;BME280;37033;49.994;21.992;2022-10-04T06:08:21;99252.68;;;9.35;89.54
50710;BME280;37033;49.994;21.992;2022-10-04T06:11:31;99253.06;;;9.37;89.39
50710;BME280;37033;49.994;21.992;2022-10-04T06:15:01;99263.90;;;9.40;89.20
50710;BME280;37033;49.994;21.992;2022-10-04T06:18:05;99270.20;;;9.42;89.23
50710;BME280;37033;49.994;21.992;2022-10-04T06:21:09;99272.19;;;9.46;89.09
50710;BME280;37033;49.994;21.992;2022-10-04T06:24:08;99273.69;;;9.48;89.04
50710;BME280;37033;49.994;21.992;2022-10-04T06:27:03;99275.61;;;9.51;88.94
50710;BME280;37033;49.994;21.992;2022-10-04T06:29:58;99273.55;;;9.54;88.83
50710;BME280;37033;49.994;21.992;2022-10-04T06:33:01;99272.21;;;9.56;88.79
50710;BME280;37033;49.994;21.992;2022-10-04T06:39:21;99285.55;;;9.63;88.60
50710;BME280;37033;49.994;21.992;2022-10-04T06:42:24;99285.73;;;9.64;88.25
50710;BME280;37033;49.994;21.992;2022-10-04T06:45:29;99291.08;;;9.65;88.13
50710;BME280;37033;49.994;21.992;2022-10-04T06:52:03;99300.99;;;9.70;88.07
50710;BME280;37033;49.994;21.992;2022-10-04T06:55:23;99300.39;;;9.78;88.10
50710;BME280;37033;49.994;21.992;2022-10-04T06:58:30;99302.04;;;9.86;87.91
50710;BME280;37033;49.994;21.992;2022-10-04T07:01:27;99308.13;;;9.92;87.75
50710;BME280;37033;49.994;21.992;2022-10-04T07:04:23;99314.21;;;9.96;87.55
50710;BME280;37033;49.994;21.992;2022-10-04T07:07:20;99317.34;;;10.00;87.38
50710;BME280;37033;49.994;21.992;2022-10-04T07:10:26;99323.64;;;10.05;87.32
50710;BME280;37033;49.994;21.992;2022-10-04T07:13:33;99331.83;;;10.10;86.80
50710;BME280;37033;49.994;21.992;2022-10-04T07:16:36;99330.14;;;10.13;86.64
50710;BME280;37033;49.994;21.992;2022-10-04T07:19:35;99337.96;;;10.18;86.59
50710;BME280;37033;49.994;21.992;2022-10-04T07:22:26;99338.57;;;10.23;86.41
50710;BME280;37033;49.994;21.992;2022-10-04T07:25:21;99341.88;;;10.26;85.90
50710;BME280;37033;49.994;21.992;2022-10-04T07:28:18;99344.02;;;10.27;85.37
50710;BME280;37033;49.994;21.992;2022-10-04T07:31:28;99340.73;;;10.29;85.33
50710;BME280;37033;49.994;21.992;2022-10-04T07:34:20;99343.33;;;10.31;85.44
50710;BME280;37033;49.994;21.992;2022-10-04T07:37:10;99344.13;;;10.33;85.57
50710;BME280;37033;49.994;21.992;2022-10-04T07:40:06;99345.42;;;10.36;85.56
50710;BME280;37033;49.994;21.992;2022-10-04T07:42:58;99350.67;;;10.37;85.63
50710;BME280;37033;49.994;21.992;2022-10-04T07:46:05;99351.21;;;10.42;85.72
50710;BME280;37033;49.994;21.992;2022-10-04T07:48:58;99353.23;;;10.46;85.63
50710;BME280;37033;49.994;21.992;2022-10-04T07:52:00;99361.23;;;10.52;85.69
50710;BME280;37033;49.994;21.992;2022-10-04T07:54:55;99369.17;;;10.61;85.51
50710;BME280;37033;49.994;21.992;2022-10-04T07:57:56;99368.83;;;10.71;85.64
50710;BME280;37033;49.994;21.992;2022-10-04T08:00:53;99365.08;;;10.79;85.46
50710;BME280;37033;49.994;21.992;2022-10-04T08:03:57;99375.16;;;10.86;85.00
50710;BME280;37033;49.994;21.992;2022-10-04T08:06:57;99379.70;;;10.91;84.75
50710;BME280;37033;49.994;21.992;2022-10-04T08:09:54;99373.74;;;10.96;84.74
50710;BME280;37033;49.994;21.992;2022-10-04T08:12:49;99374.73;;;11.02;84.71
50710;BME280;37033;49.994;21.992;2022-10-04T08:15:39;99382.48;;;11.07;84.12
50710;BME280;37033;49.994;21.992;2022-10-04T08:18:40;99379.89;;;11.09;83.90
50710;BME280;37033;49.994;21.992;2022-10-04T08:21:51;99391.80;;;11.08;83.36
50710;BME280;37033;49.994;21.992;2022-10-04T08:24:59;99398.33;;;11.08;83.39
50710;BME280;37033;49.994;21.992;2022-10-04T08:28:01;99403.05;;;11.08;82.94
50710;BME280;37033;49.994;21.992;2022-10-04T08:31:20;99405.94;;;11.10;82.65
50710;BME280;37033;49.994;21.992;2022-10-04T08:34:28;99404.45;;;11.13;82.42
50710;BME280;37033;49.994;21.992;2022-10-04T08:37:29;99408.27;;;11.10;82.16
50710;BME280;37033;49.994;21.992;2022-10-04T08:44:08;99414.02;;;11.06;82.46
50710;BME280;37033;49.994;21.992;2022-10-04T08:50:41;99413.15;;;11.06;82.30
50710;BME280;37033;49.994;21.992;2022-10-04T08:57:30;99412.52;;;11.20;81.99
50710;BME280;37033;49.994;21.992;2022-10-04T09:00:27;99418.71;;;11.31;82.21
50710;BME280;37033;49.994;21.992;2022-10-04T09:03:41;99419.83;;;11.42;81.75
50710;BME280;37033;49.994;21.992;2022-10-04T09:06:40;99417.41;;;11.51;81.42
50710;BME280;37033;49.994;21.992;2022-10-04T09:10:27;99423.07;;;11.57;81.00
50710;BME280;37033;49.994;21.992;2022-10-04T09:13:40;99423.17;;;11.63;80.99
50710;BME280;37033;49.994;21.992;2022-10-04T09:16:37;99429.77;;;11.74;80.92
50710;BME280;37033;49.994;21.992;2022-10-04T09:19:40;99431.81;;;11.80;80.28
50710;BME280;37033;49.994;21.992;2022-10-04T09:22:45;99438.63;;;11.80;80.01
50710;BME280;37033;49.994;21.992;2022-10-04T09:25:48;99442.73;;;11.81;79.65
50710;BME280;37033;49.994;21.992;2022-10-04T09:29:10;99446.11;;;11.84;79.74
50710;BME280;37033;49.994;21.992;2022-10-04T09:35:48;99455.70;;;11.90;79.18
50710;BME280;37033;49.994;21.992;2022-10-04T09:39:09;99458.88;;;11.91;78.64
50710;BME280;37033;49.994;21.992;2022-10-04T09:45:32;99457.89;;;11.85;78.30
50710;BME280;37033;49.994;21.992;2022-10-04T09:48:31;99464.95;;;11.83;78.38
50710;BME280;37033;49.994;21.992;2022-10-04T09:51:47;99464.78;;;11.83;78.32
50710;BME280;37033;49.994;21.992;2022-10-04T09:55:00;99464.95;;;11.87;78.42
50710;BME280;37033;49.994;21.992;2022-10-04T09:58:04;99468.84;;;11.94;78.20
50710;BME280;37033;49.994;21.992;2022-10-04T10:01:04;99472.67;;;11.99;78.30
50710;BME280;37033;49.994;21.992;2022-10-04T10:04:16;99479.77;;;12.05;77.66
50710;BME280;37033;49.994;21.992;2022-10-04T10:07:34;99480.81;;;12.11;77.71
50710;BME280;37033;49.994;21.992;2022-10-04T10:10:32;99484.49;;;12.16;77.75
50710;BME280;37033;49.994;21.992;2022-10-04T10:14:02;99484.98;;;12.24;77.79
50710;BME280;37033;49.994;21.992;2022-10-04T10:17:06;99488.19;;;12.33;77.63
50710;BME280;37033;49.994;21.992;2022-10-04T10:27:15;99494.80;;;12.51;76.27
50710;BME280;37033;49.994;21.992;2022-10-04T10:30:19;99497.80;;;12.58;76.52
50710;BME280;37033;49.994;21.992;2022-10-04T10:33:34;99503.92;;;12.67;76.26
50710;BME280;37033;49.994;21.992;2022-10-04T10:40:13;99504.11;;;12.57;74.79
50710;BME280;37033;49.994;21.992;2022-10-04T10:46:37;99505.58;;;12.49;74.30
50710;BME280;37033;49.994;21.992;2022-10-04T10:49:41;99503.79;;;12.57;74.06
50710;BME280;37033;49.994;21.992;2022-10-04T11:03:18;99510.40;;;12.83;72.77
50710;BME280;37033;49.994;21.992;2022-10-04T11:06:15;99510.84;;;12.83;72.09
50710;BME280;37033;49.994;21.992;2022-10-04T11:09:26;99511.70;;;12.82;72.35
50710;BME280;37033;49.994;21.992;2022-10-04T11:12:55;99517.10;;;12.82;72.00
50710;BME280;37033;49.994;21.992;2022-10-04T11:16:12;99522.30;;;12.79;72.20
50710;BME280;37033;49.994;21.992;2022-10-04T11:19:31;99526.92;;;12.74;72.04
50710;BME280;37033;49.994;21.992;2022-10-04T11:22:57;99523.60;;;12.71;72.87
50710;BME280;37033;49.994;21.992;2022-10-04T11:26:20;99524.61;;;12.76;73.10
50710;BME280;37033;49.994;21.992;2022-10-04T11:29:31;99528.87;;;12.90;73.60
50710;BME280;37033;49.994;21.992;2022-10-04T11:36:13;99537.30;;;13.01;73.38
50710;BME280;37033;49.994;21.992;2022-10-04T11:39:30;99534.75;;;13.05;73.41
50710;BME280;37033;49.994;21.992;2022-10-04T11:42:32;99541.93;;;13.09;73.79
50710;BME280;37033;49.994;21.992;2022-10-04T11:45:34;99540.94;;;13.12;72.79
50710;BME280;37033;49.994;21.992;2022-10-04T11:48:35;99546.67;;;13.09;72.72
50710;BME280;37033;49.994;21.992;2022-10-04T11:58:30;99563.98;;;12.79;71.86
50710;BME280;37033;49.994;21.992;2022-10-04T12:01:53;99568.28;;;12.71;71.63
50710;BME280;37033;49.994;21.992;2022-10-04T12:05:17;99572.20;;;12.63;71.36
50710;BME280;37033;49.994;21.992;2022-10-04T12:08:19;99564.96;;;12.56;71.70
50710;BME280;37033;49.994;21.992;2022-10-04T12:15:07;99577.89;;;12.64;72.05
50710;BME280;37033;49.994;21.992;2022-10-04T12:21:48;99588.62;;;12.77;72.16
50710;BME280;37033;49.994;21.992;2022-10-04T12:25:01;99593.07;;;12.77;70.38
50710;BME280;37033;49.994;21.992;2022-10-04T12:28:13;99588.66;;;12.70;70.24
50710;BME280;37033;49.994;21.992;2022-10-04T12:34:17;99587.40;;;12.61;70.94
50710;BME280;37033;49.994;21.992;2022-10-04T12:37:18;99590.64;;;12.56;70.86
50710;BME280;37033;49.994;21.992;2022-10-04T12:40:20;99591.29;;;12.49;71.36
50710;BME280;37033;49.994;21.992;2022-10-04T12:43:18;99592.26;;;12.44;71.65
50710;BME280;37033;49.994;21.992;2022-10-04T12:46:20;99603.23;;;12.42;71.88
50710;BME280;37033;49.994;21.992;2022-10-04T12:49:19;99599.88;;;12.38;72.33
50710;BME280;37033;49.994;21.992;2022-10-04T12:52:15;99611.56;;;12.40;72.07
50710;BME280;37033;49.994;21.992;2022-10-04T12:55:16;99617.05;;;12.38;71.98
50710;BME280;37033;49.994;21.992;2022-10-04T12:58:16;99619.05;;;12.37;71.94
50710;BME280;37033;49.994;21.992;2022-10-04T13:01:13;99624.73;;;12.38;72.18
50710;BME280;37033;49.994;21.992;2022-10-04T13:04:20;99621.60;;;12.37;72.18
50710;BME280;37033;49.994;21.992;2022-10-04T13:07:51;99627.36;;;12.37;72.04
50710;BME280;37033;49.994;21.992;2022-10-04T13:11:09;99632.82;;;12.33;71.84
50710;BME280;37033;49.994;21.992;2022-10-04T13:17:36;99637.45;;;12.27;72.82
50710;BME280;37033;49.994;21.992;2022-10-04T13:20:49;99636.13;;;12.29;72.77
50710;BME280;37033;49.994;21.992;2022-10-04T13:23:52;99642.42;;;12.28;72.85
50710;BME280;37033;49.994;21.992;2022-10-04T13:26:50;99640.04;;;12.28;73.00
50710;BME280;37033;49.994;21.992;2022-10-04T13:29:48;99639.26;;;12.31;73.43
50710;BME280;37033;49.994;21.992;2022-10-04T13:32:43;99644.05;;;12.33;73.13
50710;BME280;37033;49.994;21.992;2022-10-04T13:35:41;99642.02;;;12.33;73.22
50710;BME280;37033;49.994;21.992;2022-10-04T13:38:52;99654.35;;;12.36;73.40
50710;BME280;37033;49.994;21.992;2022-10-04T13:45:11;99661.90;;;12.41;73.08
50710;BME280;37033;49.994;21.992;2022-10-04T13:51:32;99661.73;;;12.51;73.30
50710;BME280;37033;49.994;21.992;2022-10-04T13:54:33;99664.75;;;12.54;73.10
50710;BME280;37033;49.994;21.992;2022-10-04T13:57:46;99669.45;;;12.55;73.12
50710;BME280;37033;49.994;21.992;2022-10-04T14:00:52;99670.67;;;12.60;73.25
50710;BME280;37033;49.994;21.992;2022-10-04T14:03:52;99676.42;;;12.65;73.06
50710;BME280;37033;49.994;21.992;2022-10-04T14:07:10;99676.11;;;12.66;72.88
50710;BME280;37033;49.994;21.992;2022-10-04T14:10:36;99679.55;;;12.66;72.73
50710;BME280;37033;49.994;21.992;2022-10-04T14:14:05;99684.15;;;12.64;72.63
50710;BME280;37033;49.994;21.992;2022-10-04T14:20:59;99689.45;;;12.61;72.98
50710;BME280;37033;49.994;21.992;2022-10-04T14:30:30;99696.09;;;12.60;73.05
50710;BME280;37033;49.994;21.992;2022-10-04T14:33:57;99693.27;;;12.64;73.43
50710;BME280;37033;49.994;21.992;2022-10-04T14:40:23;99690.36;;;12.80;73.24
50710;BME280;37033;49.994;21.992;2022-10-04T14:46:29;99695.66;;;12.88;72.61
50710;BME280;37033;49.994;21.992;2022-10-04T14:49:40;99695.59;;;12.86;72.42
50710;BME280;37033;49.994;21.992;2022-10-04T14:52:40;99697.66;;;12.83;71.43
50710;BME280;37033;49.994;21.992;2022-10-04T14:58:49;99708.59;;;12.71;70.83
50710;BME280;37033;49.994;21.992;2022-10-04T15:01:45;99708.79;;;12.66;70.74
50710;BME280;37033;49.994;21.992;2022-10-04T15:08:36;99718.51;;;12.67;70.69
50710;BME280;37033;49.994;21.992;2022-10-04T15:11:41;99722.85;;;12.69;69.98
50710;BME280;37033;49.994;21.992;2022-10-04T15:14:37;99730.13;;;12.67;69.68
50710;BME280;37033;49.994;21.992;2022-10-04T15:17:26;99731.06;;;12.64;70.18
50710;BME280;37033;49.994;21.992;2022-10-04T15:20:21;99740.07;;;12.61;70.69
50710;BME280;37033;49.994;21.992;2022-10-04T15:23:16;99744.66;;;12.59;70.96
50710;BME280;37033;49.994;21.992;2022-10-04T15:29:50;99750.01;;;12.53;71.78
50710;BME280;37033;49.994;21.992;2022-10-04T15:32:42;99752.27;;;12.51;72.10
50710;BME280;37033;49.994;21.992;2022-10-04T15:35:38;99755.27;;;12.51;72.38
50710;BME280;37033;49.994;21.992;2022-10-04T15:38:37;99759.11;;;12.47;72.68
50710;BME280;37033;49.994;21.992;2022-10-04T15:41:38;99758.11;;;12.42;72.84
50710;BME280;37033;49.994;21.992;2022-10-04T15:51:04;99762.54;;;12.26;73.20
50710;BME280;37033;49.994;21.992;2022-10-04T15:54:07;99763.25;;;12.20;73.28
50710;BME280;37033;49.994;21.992;2022-10-04T15:57:00;99769.45;;;12.14;73.63
50710;BME280;37033;49.994;21.992;2022-10-04T15:59:52;99772.66;;;12.11;73.72
50710;BME280;37033;49.994;21.992;2022-10-04T16:03:01;99778.79;;;12.09;73.80
50710;BME280;37033;49.994;21.992;2022-10-04T16:05:59;99784.15;;;12.05;73.87
50710;BME280;37033;49.994;21.992;2022-10-04T16:09:12;99786.90;;;12.01;74.08
50710;BME280;37033;49.994;21.992;2022-10-04T16:12:18;99794.83;;;11.97;74.16
50710;BME280;37033;49.994;21.992;2022-10-04T16:15:17;99795.71;;;11.92;74.42
50710;BME280;37033;49.994;21.992;2022-10-04T16:18:23;99797.26;;;11.88;74.60
50710;BME280;37033;49.994;21.992;2022-10-04T16:21:27;99799.36;;;11.83;74.66
50710;BME280;37033;49.994;21.992;2022-10-04T16:24:45;99797.81;;;11.80;74.83
50710;BME280;37033;49.994;21.992;2022-10-04T16:27:48;99800.75;;;11.76;75.08
50710;BME280;37033;49.994;21.992;2022-10-04T16:30:47;99803.11;;;11.73;75.08
50710;BME280;37033;49.994;21.992;2022-10-04T16:33:52;99800.54;;;11.70;75.26
50710;BME280;37033;49.994;21.992;2022-10-04T16:36:49;99804.45;;;11.66;75.36
50710;BME280;37033;49.994;21.992;2022-10-04T16:39:49;99801.55;;;11.63;75.46
50710;BME280;37033;49.994;21.992;2022-10-04T16:42:53;99802.15;;;11.59;75.49
50710;BME280;37033;49.994;21.992;2022-10-04T16:45:48;99809.08;;;11.56;75.66
50710;BME280;37033;49.994;21.992;2022-10-04T16:48:52;99811.73;;;11.53;75.79
50710;BME280;37033;49.994;21.992;2022-10-04T16:52:03;99816.38;;;11.50;75.87
50710;BME280;37033;49.994;21.992;2022-10-04T16:55:29;99820.20;;;11.45;75.89
50710;BME280;37033;49.994;21.992;2022-10-04T16:58:48;99825.52;;;11.42;76.08
50710;BME280;37033;49.994;21.992;2022-10-04T17:02:05;99822.96;;;11.38;76.15
50710;BME280;37033;49.994;21.992;2022-10-04T17:08:46;99822.88;;;11.27;76.42
50710;BME280;37033;49.994;21.992;2022-10-04T17:11:43;99827.30;;;11.23;76.53
50710;BME280;37033;49.994;21.992;2022-10-04T17:15:04;99832.98;;;11.20;76.72
50710;BME280;37033;49.994;21.992;2022-10-04T17:18:01;99840.02;;;11.15;76.64
50710;BME280;37033;49.994;21.992;2022-10-04T17:20:59;99841.08;;;11.11;76.75
50710;BME280;37033;49.994;21.992;2022-10-04T17:24:04;99843.92;;;11.07;76.74
50710;BME280;37033;49.994;21.992;2022-10-04T17:27:11;99848.33;;;11.03;76.94
50710;BME280;37033;49.994;21.992;2022-10-04T17:30:15;99848.30;;;10.99;77.00
50710;BME280;37033;49.994;21.992;2022-10-04T17:33:20;99853.86;;;10.95;77.13
50710;BME280;37033;49.994;21.992;2022-10-04T17:36:27;99859.23;;;10.91;77.19
50710;BME280;37033;49.994;21.992;2022-10-04T17:39:34;99862.85;;;10.85;77.19
50710;BME280;37033;49.994;21.992;2022-10-04T17:42:31;99862.61;;;10.80;77.15
50710;BME280;37033;49.994;21.992;2022-10-04T17:45:45;99868.88;;;10.77;77.20